createdAt,value
2022-08-10T00:00:05.534Z,457
2022-08-10T00:00:15.484Z,457
2022-08-10T00:00:25.486Z,459
2022-08-10T00:00:35.523Z,459
2022-08-10T00:00:45.512Z,458
2022-08-10T00:00:55.547Z,458
2022-08-10T00:01:05.888Z,459
2022-08-10T00:01:15.640Z,457
2022-08-10T00:01:25.657Z,458
2022-08-10T00:01:35.894Z,458
2022-08-10T00:01:45.766Z,456
2022-08-10T00:01:55.688Z,455
2022-08-10T00:02:05.689Z,455
2022-08-10T00:02:15.655Z,455
2022-08-10T00:02:25.643Z,456
2022-08-10T00:02:35.921Z,455
2022-08-10T00:02:45.648Z,457
2022-08-10T00:02:55.666Z,457
2022-08-10T00:03:06.163Z,458
2022-08-10T00:03:15.706Z,459
2022-08-10T00:03:25.734Z,460
2022-08-10T00:03:35.702Z,462
2022-08-10T00:03:45.737Z,459
2022-08-10T00:03:55.729Z,460
2022-08-10T00:04:05.820Z,462
2022-08-10T00:04:21.282Z,462
2022-08-10T00:04:25.759Z,463
2022-08-10T00:04:35.796Z,465
2022-08-10T00:04:45.785Z,463
2022-08-10T00:04:55.812Z,463
2022-08-10T00:05:06.083Z,461
2022-08-10T00:05:15.937Z,464
2022-08-10T00:05:26.025Z,462
2022-08-10T00:05:43.430Z,464
2022-08-10T00:05:52.801Z,466
2022-08-10T00:05:55.868Z,465
2022-08-10T00:06:06.902Z,464
2022-08-10T00:06:15.884Z,465
2022-08-10T00:06:26.068Z,465
2022-08-10T00:06:35.955Z,465
2022-08-10T00:06:45.978Z,468
2022-08-10T00:06:55.950Z,467
2022-08-10T00:07:06.108Z,466
2022-08-10T00:07:16.073Z,467
2022-08-10T00:07:35.967Z,466
2022-08-10T00:07:45.988Z,465
2022-08-10T00:07:55.989Z,464
2022-08-10T00:08:06.131Z,463
2022-08-10T00:08:22.600Z,464
2022-08-10T00:08:31.303Z,464
2022-08-10T00:08:36.027Z,464
2022-08-10T00:08:46.057Z,465
2022-08-10T00:08:56.058Z,463
2022-08-10T00:09:06.158Z,465
2022-08-10T00:09:16.096Z,466
2022-08-10T00:09:26.103Z,467
2022-08-10T00:09:50.098Z,468
2022-08-10T00:09:51.192Z,466
2022-08-10T00:09:56.136Z,465
2022-08-10T00:10:06.191Z,465
2022-08-10T00:10:16.157Z,464
2022-08-10T00:10:26.158Z,462
2022-08-10T00:10:36.247Z,460
2022-08-10T00:10:46.263Z,459
2022-08-10T00:10:56.256Z,460
2022-08-10T00:11:06.225Z,458
2022-08-10T00:11:16.753Z,459
2022-08-10T00:11:26.320Z,461
2022-08-10T00:11:36.258Z,462
2022-08-10T00:11:46.272Z,464
2022-08-10T00:11:56.273Z,464
2022-08-10T00:12:06.328Z,465
2022-08-10T00:12:16.790Z,464
2022-08-10T00:12:31.678Z,465
2022-08-10T00:12:54.363Z,465
2022-08-10T00:12:54.545Z,465
2022-08-10T00:12:56.670Z,465
2022-08-10T00:13:06.355Z,464
2022-08-10T00:13:16.373Z,465
2022-08-10T00:13:26.400Z,464
2022-08-10T00:13:36.399Z,463
2022-08-10T00:13:46.406Z,462
2022-08-10T00:13:56.431Z,461
2022-08-10T00:14:06.430Z,459
2022-08-10T00:14:16.438Z,458
2022-08-10T00:14:26.469Z,458
2022-08-10T00:14:36.469Z,459
2022-08-10T00:14:46.495Z,457
2022-08-10T00:14:56.510Z,457
2022-08-10T00:15:06.517Z,456
2022-08-10T00:15:51.901Z,457
2022-08-10T00:15:52.353Z,457
2022-08-10T00:15:53.199Z,456
2022-08-10T00:15:53.650Z,456
2022-08-10T00:15:56.555Z,457
2022-08-10T00:16:06.579Z,457
2022-08-10T00:16:16.717Z,458
2022-08-10T00:16:26.590Z,458
2022-08-10T00:16:36.626Z,459
2022-08-10T00:16:46.623Z,458
2022-08-10T00:16:56.668Z,460
2022-08-10T00:17:06.654Z,459
2022-08-10T00:17:16.758Z,458
2022-08-10T00:17:26.664Z,460
2022-08-10T00:17:36.686Z,461
2022-08-10T00:17:46.847Z,458
2022-08-10T00:17:56.730Z,457
2022-08-10T00:18:06.730Z,456
2022-08-10T00:18:31.598Z,456
2022-08-10T00:18:34.267Z,454
2022-08-10T00:18:36.776Z,453
2022-08-10T00:18:46.841Z,451
2022-08-10T00:18:56.940Z,450
2022-08-10T00:19:06.787Z,451
2022-08-10T00:19:18.178Z,450
2022-08-10T00:19:26.816Z,451
2022-08-10T00:20:02.982Z,451
2022-08-10T00:20:03.162Z,451
2022-08-10T00:20:03.509Z,451
2022-08-10T00:20:08.722Z,451
2022-08-10T00:20:16.928Z,451
2022-08-10T00:20:26.889Z,450
2022-08-10T00:20:36.889Z,450
2022-08-10T00:20:46.904Z,453
2022-08-10T00:20:57.155Z,451
2022-08-10T00:21:07.052Z,453
2022-08-10T00:21:16.921Z,455
2022-08-10T00:21:27.349Z,454
2022-08-10T00:21:36.965Z,455
2022-08-10T00:21:47.046Z,456
2022-08-10T00:21:57.033Z,457
2022-08-10T00:22:07.122Z,457
2022-08-10T00:22:17.204Z,459
2022-08-10T00:22:27.048Z,459
2022-08-10T00:22:37.029Z,459
2022-08-10T00:22:57.361Z,459
2022-08-10T00:22:57.893Z,460
2022-08-10T00:23:07.080Z,461
2022-08-10T00:23:17.080Z,458
2022-08-10T00:23:27.110Z,458
2022-08-10T00:23:37.111Z,457
2022-08-10T00:23:47.136Z,460
2022-08-10T00:23:57.109Z,457
2022-08-10T00:24:07.140Z,458
2022-08-10T00:24:17.145Z,459
2022-08-10T00:24:27.147Z,457
2022-08-10T00:24:41.384Z,455
2022-08-10T00:24:47.181Z,455
2022-08-10T00:24:57.187Z,454
2022-08-10T00:25:07.181Z,455
2022-08-10T00:25:17.197Z,454
2022-08-10T00:25:27.220Z,455
2022-08-10T00:25:37.271Z,456
2022-08-10T00:25:47.259Z,456
2022-08-10T00:25:57.267Z,456
2022-08-10T00:26:07.272Z,456
2022-08-10T00:26:17.323Z,455
2022-08-10T00:26:27.285Z,454
2022-08-10T00:27:49.981Z,457
2022-08-10T00:27:51.892Z,455
2022-08-10T00:27:58.710Z,457
2022-08-10T00:27:58.876Z,453
2022-08-10T00:28:00.779Z,456
2022-08-10T00:28:01.817Z,454
2022-08-10T00:28:01.871Z,453
2022-08-10T00:28:02.053Z,459
2022-08-10T00:28:03.557Z,458
2022-08-10T00:28:07.431Z,457
2022-08-10T00:28:17.433Z,456
2022-08-10T00:28:27.426Z,456
2022-08-10T00:28:37.439Z,457
2022-08-10T00:28:47.464Z,455
2022-08-10T00:28:57.479Z,455
2022-08-10T00:29:09.250Z,455
2022-08-10T00:29:17.488Z,455
2022-08-10T00:29:27.510Z,455
2022-08-10T00:29:37.513Z,454
2022-08-10T00:29:47.583Z,454
2022-08-10T00:29:57.532Z,454
2022-08-10T00:30:07.550Z,453
2022-08-10T00:30:17.555Z,452
2022-08-10T00:30:27.594Z,452
2022-08-10T00:30:37.598Z,451
2022-08-10T00:30:47.633Z,451
2022-08-10T00:30:57.795Z,451
2022-08-10T00:31:07.609Z,451
2022-08-10T00:31:17.663Z,451
2022-08-10T00:31:27.631Z,452
2022-08-10T00:31:55.866Z,453
2022-08-10T00:31:56.036Z,454
2022-08-10T00:31:59.511Z,456
2022-08-10T00:32:07.677Z,456
2022-08-10T00:32:17.727Z,456
2022-08-10T00:32:27.704Z,457
2022-08-10T00:32:37.714Z,456
2022-08-10T00:32:47.770Z,455
2022-08-10T00:32:57.757Z,456
2022-08-10T00:33:07.761Z,454
2022-08-10T00:33:17.776Z,454
2022-08-10T00:33:27.787Z,455
2022-08-10T00:33:37.799Z,454
2022-08-10T00:33:47.812Z,454
2022-08-10T00:33:57.850Z,454
2022-08-10T00:34:07.819Z,452
2022-08-10T00:34:17.832Z,453
2022-08-10T00:34:27.870Z,453
2022-08-10T00:34:37.855Z,453
2022-08-10T00:34:47.910Z,453
2022-08-10T00:34:57.959Z,453
2022-08-10T00:35:07.890Z,453
2022-08-10T00:35:18.003Z,455
2022-08-10T00:35:27.932Z,454
2022-08-10T00:35:37.963Z,456
2022-08-10T00:35:47.936Z,457
2022-08-10T00:35:58.185Z,458
2022-08-10T00:36:07.946Z,458
2022-08-10T00:36:17.980Z,457
2022-08-10T00:36:27.974Z,457
2022-08-10T00:36:37.992Z,459
2022-08-10T00:36:48.013Z,457
2022-08-10T00:36:58.035Z,458
2022-08-10T00:37:08.017Z,457
2022-08-10T00:37:18.048Z,456
2022-08-10T00:37:28.247Z,455
2022-08-10T00:37:38.060Z,455
2022-08-10T00:37:56.499Z,455
2022-08-10T00:37:58.306Z,457
2022-08-10T00:38:08.089Z,457
2022-08-10T00:38:18.159Z,457
2022-08-10T00:38:28.199Z,459
2022-08-10T00:38:38.129Z,462
2022-08-10T00:38:48.160Z,464
2022-08-10T00:38:58.272Z,464
2022-08-10T00:39:11.967Z,464
2022-08-10T00:39:18.196Z,465
2022-08-10T00:39:28.357Z,465
2022-08-10T00:39:39.480Z,463
2022-08-10T00:39:48.282Z,463
2022-08-10T00:39:58.322Z,462
2022-08-10T00:40:08.328Z,460
2022-08-10T00:40:18.273Z,460
2022-08-10T00:40:37.944Z,462
2022-08-10T00:40:38.313Z,461
2022-08-10T00:40:48.383Z,461
2022-08-10T00:40:58.323Z,460
2022-08-10T00:41:08.314Z,460
2022-08-10T00:41:18.347Z,462
2022-08-10T00:41:28.318Z,462
2022-08-10T00:41:38.357Z,461
2022-08-10T00:42:02.161Z,458
2022-08-10T00:42:06.866Z,460
2022-08-10T00:42:08.436Z,459
2022-08-10T00:42:18.405Z,458
2022-08-10T00:42:28.385Z,456
2022-08-10T00:42:38.421Z,457
2022-08-10T00:42:48.438Z,459
2022-08-10T00:42:58.462Z,460
2022-08-10T00:43:08.527Z,462
2022-08-10T00:43:23.495Z,462
2022-08-10T00:43:28.568Z,461
2022-08-10T00:43:38.568Z,462
2022-08-10T00:43:48.479Z,462
2022-08-10T00:43:58.498Z,461
2022-08-10T00:44:08.504Z,461
2022-08-10T00:44:18.557Z,457
2022-08-10T00:44:28.538Z,457
2022-08-10T00:44:38.548Z,456
2022-08-10T00:44:48.778Z,457
2022-08-10T00:44:58.583Z,456
2022-08-10T00:45:08.579Z,455
2022-08-10T00:45:18.624Z,457
2022-08-10T00:45:28.610Z,456
2022-08-10T00:45:38.622Z,457
2022-08-10T00:45:59.874Z,458
2022-08-10T00:46:00.448Z,456
2022-08-10T00:46:08.652Z,458
2022-08-10T00:46:18.718Z,460
2022-08-10T00:46:28.701Z,457
2022-08-10T00:46:38.840Z,459
2022-08-10T00:46:48.687Z,457
2022-08-10T00:46:58.713Z,458
2022-08-10T00:47:35.332Z,457
2022-08-10T00:47:36.776Z,454
2022-08-10T00:47:37.367Z,453
2022-08-10T00:47:38.760Z,453
2022-08-10T00:47:48.767Z,452
2022-08-10T00:47:58.782Z,452
2022-08-10T00:48:08.767Z,452
2022-08-10T00:48:18.804Z,454
2022-08-10T00:48:28.808Z,455
2022-08-10T00:48:38.809Z,455
2022-08-10T00:49:00.062Z,456
2022-08-10T00:49:00.703Z,455
2022-08-10T00:49:08.843Z,454
2022-08-10T00:49:18.886Z,454
2022-08-10T00:49:28.881Z,455
2022-08-10T00:49:38.879Z,457
2022-08-10T00:49:49.064Z,457
2022-08-10T00:49:58.918Z,458
2022-08-10T00:50:08.924Z,458
2022-08-10T00:50:18.957Z,457
2022-08-10T00:50:28.951Z,455
2022-08-10T00:50:39.028Z,454
2022-08-10T00:50:49.265Z,456
2022-08-10T00:50:59.000Z,455
2022-08-10T00:51:09.065Z,456
2022-08-10T00:51:19.025Z,459
2022-08-10T00:51:40.471Z,458
2022-08-10T00:51:47.961Z,457
2022-08-10T00:51:50.053Z,457
2022-08-10T00:51:59.069Z,456
2022-08-10T00:52:09.168Z,455
2022-08-10T00:52:19.083Z,455
2022-08-10T00:52:29.110Z,455
2022-08-10T00:52:39.332Z,454
2022-08-10T00:52:49.115Z,454
2022-08-10T00:52:59.110Z,454
2022-08-10T00:53:09.111Z,454
2022-08-10T00:53:19.143Z,453
2022-08-10T00:53:29.181Z,453
2022-08-10T00:53:39.290Z,455
2022-08-10T00:53:49.551Z,455
2022-08-10T00:53:59.184Z,455
2022-08-10T00:54:09.218Z,456
2022-08-10T00:54:23.981Z,456
2022-08-10T00:54:29.222Z,456
2022-08-10T00:54:39.257Z,457
2022-08-10T00:54:49.381Z,459
2022-08-10T00:54:59.552Z,459
2022-08-10T00:55:09.261Z,459
2022-08-10T00:55:19.294Z,459
2022-08-10T00:55:29.293Z,458
2022-08-10T00:57:02.042Z,457
2022-08-10T00:57:02.079Z,457
2022-08-10T00:57:07.914Z,456
2022-08-10T00:57:10.048Z,456
2022-08-10T00:57:10.068Z,458
2022-08-10T00:57:14.486Z,458
2022-08-10T00:57:15.805Z,457
2022-08-10T00:57:16.169Z,458
2022-08-10T00:57:16.402Z,459
2022-08-10T00:57:17.795Z,456
2022-08-10T00:57:19.488Z,458
2022-08-10T00:57:29.422Z,460
2022-08-10T00:57:39.448Z,462
2022-08-10T00:57:55.258Z,461
2022-08-10T00:57:59.706Z,462
2022-08-10T00:58:09.472Z,461
2022-08-10T00:58:19.485Z,461
2022-08-10T00:58:29.511Z,459
2022-08-10T00:58:39.512Z,460
2022-08-10T00:58:49.511Z,459
2022-08-10T00:58:59.522Z,460
2022-08-10T00:59:09.556Z,461
2022-08-10T00:59:19.559Z,462
2022-08-10T00:59:29.567Z,463
2022-08-10T00:59:57.668Z,464
2022-08-10T00:59:58.488Z,463
2022-08-10T01:00:00.279Z,463
2022-08-10T01:00:09.617Z,461
2022-08-10T01:00:19.624Z,460
2022-08-10T01:00:29.638Z,459
2022-08-10T01:00:39.649Z,459
2022-08-10T01:00:49.674Z,460
2022-08-10T01:00:59.695Z,459
2022-08-10T01:02:07.365Z,460
2022-08-10T01:02:07.448Z,459
2022-08-10T01:02:08.857Z,461
2022-08-10T01:02:08.946Z,457
2022-08-10T01:02:09.472Z,460
2022-08-10T01:02:09.664Z,456
2022-08-10T01:02:11.700Z,455
2022-08-10T01:02:19.843Z,454
2022-08-10T01:02:29.976Z,456
2022-08-10T01:02:40.089Z,455
2022-08-10T01:02:49.974Z,454
2022-08-10T01:02:59.928Z,456
2022-08-10T01:03:09.844Z,458
2022-08-10T01:04:36.426Z,457
2022-08-10T01:04:39.727Z,458
2022-08-10T01:04:40.286Z,456
2022-08-10T01:04:54.216Z,455
2022-08-10T01:04:57.228Z,456
2022-08-10T01:04:57.423Z,454
2022-08-10T01:04:58.090Z,454
2022-08-10T01:04:58.514Z,455
2022-08-10T01:04:59.241Z,456
2022-08-10T01:04:59.478Z,457
2022-08-10T01:05:01.590Z,455
2022-08-10T01:05:09.986Z,455
2022-08-10T01:05:20.078Z,453
2022-08-10T01:05:30.220Z,452
2022-08-10T01:05:51.035Z,454
2022-08-10T01:05:51.219Z,454
2022-08-10T01:06:00.045Z,456
2022-08-10T01:06:10.086Z,458
2022-08-10T01:06:20.130Z,458
2022-08-10T01:06:30.092Z,459
2022-08-10T01:06:40.236Z,461
2022-08-10T01:06:50.106Z,462
2022-08-10T01:07:00.130Z,463
2022-08-10T01:07:10.131Z,461
2022-08-10T01:07:30.181Z,460
2022-08-10T01:07:40.219Z,460
2022-08-10T01:07:50.351Z,461
2022-08-10T01:08:00.175Z,462
2022-08-10T01:08:10.199Z,464
2022-08-10T01:08:20.203Z,464
2022-08-10T01:08:30.236Z,462
2022-08-10T01:08:40.239Z,462
2022-08-10T01:08:50.252Z,463
2022-08-10T01:09:10.275Z,461
2022-08-10T01:09:20.294Z,461
2022-08-10T01:09:30.289Z,463
2022-08-10T01:09:40.343Z,464
2022-08-10T01:09:56.913Z,462
2022-08-10T01:10:00.322Z,460
2022-08-10T01:10:10.430Z,460
2022-08-10T01:10:20.355Z,457
2022-08-10T01:10:30.358Z,459
2022-08-10T01:10:40.377Z,458
2022-08-10T01:10:50.444Z,458
2022-08-10T01:11:00.413Z,457
2022-08-10T01:12:28.651Z,455
2022-08-10T01:12:37.247Z,457
2022-08-10T01:12:37.922Z,457
2022-08-10T01:12:38.115Z,455
2022-08-10T01:12:38.190Z,456
2022-08-10T01:12:38.385Z,458
2022-08-10T01:12:38.943Z,454
2022-08-10T01:12:40.248Z,455
2022-08-10T01:12:40.329Z,458
2022-08-10T01:12:41.559Z,457
2022-08-10T01:12:50.701Z,455
2022-08-10T01:13:00.564Z,456
2022-08-10T01:13:10.553Z,455
2022-08-10T01:13:20.561Z,456
2022-08-10T01:13:30.582Z,455
2022-08-10T01:13:40.658Z,454
2022-08-10T01:13:50.617Z,454
2022-08-10T01:14:00.638Z,454
2022-08-10T01:14:10.628Z,454
2022-08-10T01:14:20.648Z,453
2022-08-10T01:14:30.648Z,452
2022-08-10T01:14:40.665Z,452
2022-08-10T01:14:50.673Z,454
2022-08-10T01:15:00.730Z,453
2022-08-10T01:15:10.757Z,453
2022-08-10T01:15:20.707Z,455
2022-08-10T01:15:30.713Z,456
2022-08-10T01:15:40.733Z,456
2022-08-10T01:15:50.746Z,454
2022-08-10T01:16:00.773Z,452
2022-08-10T01:16:13.982Z,452
2022-08-10T01:16:20.784Z,453
2022-08-10T01:16:30.803Z,454
2022-08-10T01:16:40.821Z,454
2022-08-10T01:16:50.826Z,456
2022-08-10T01:17:00.843Z,457
2022-08-10T01:17:10.860Z,457
2022-08-10T01:17:20.893Z,456
2022-08-10T01:17:49.698Z,455
2022-08-10T01:17:50.177Z,455
2022-08-10T01:17:51.478Z,456
2022-08-10T01:18:00.915Z,455
2022-08-10T01:18:10.922Z,456
2022-08-10T01:18:20.931Z,455
2022-08-10T01:18:33.682Z,456
2022-08-10T01:18:40.958Z,456
2022-08-10T01:18:50.964Z,456
2022-08-10T01:19:00.985Z,457
2022-08-10T01:19:11.014Z,457
2022-08-10T01:19:21.004Z,457
2022-08-10T01:19:31.011Z,456
2022-08-10T01:19:41.033Z,455
2022-08-10T01:19:51.041Z,455
2022-08-10T01:20:01.047Z,455
2022-08-10T01:20:11.054Z,454
2022-08-10T01:20:30.749Z,456
2022-08-10T01:20:31.398Z,455
2022-08-10T01:20:41.098Z,455
2022-08-10T01:20:51.114Z,453
2022-08-10T01:21:01.134Z,453
2022-08-10T01:21:11.148Z,453
2022-08-10T01:21:21.153Z,453
2022-08-10T01:21:31.160Z,450
2022-08-10T01:21:41.867Z,450
2022-08-10T01:21:54.233Z,450
2022-08-10T01:22:01.196Z,449
2022-08-10T01:22:11.198Z,448
2022-08-10T01:22:21.223Z,446
2022-08-10T01:22:31.395Z,446
2022-08-10T01:22:41.242Z,446
2022-08-10T01:22:51.265Z,447
2022-08-10T01:23:01.275Z,446
2022-08-10T01:23:11.280Z,446
2022-08-10T01:23:31.304Z,447
2022-08-10T01:23:41.334Z,449
2022-08-10T01:23:51.343Z,449
2022-08-10T01:24:01.350Z,448
2022-08-10T01:24:11.353Z,448
2022-08-10T01:24:25.100Z,450
2022-08-10T01:24:31.387Z,449
2022-08-10T01:24:41.389Z,447
2022-08-10T01:24:51.425Z,447
2022-08-10T01:25:01.409Z,449
2022-08-10T01:25:11.424Z,448
2022-08-10T01:25:21.438Z,450
2022-08-10T01:25:31.451Z,452
2022-08-10T01:26:10.345Z,451
2022-08-10T01:26:10.883Z,452
2022-08-10T01:26:12.390Z,453
2022-08-10T01:26:30.667Z,454
2022-08-10T01:26:30.690Z,454
2022-08-10T01:26:31.992Z,459
2022-08-10T01:26:41.536Z,458
2022-08-10T01:26:51.602Z,457
2022-08-10T01:27:01.572Z,455
2022-08-10T01:27:11.567Z,455
2022-08-10T01:27:26.954Z,455
2022-08-10T01:27:31.581Z,454
2022-08-10T01:27:41.600Z,454
2022-08-10T01:27:51.652Z,453
2022-08-10T01:28:01.612Z,450
2022-08-10T01:28:11.643Z,451
2022-08-10T01:28:21.640Z,450
2022-08-10T01:28:31.648Z,450
2022-08-10T01:28:41.685Z,451
2022-08-10T01:28:51.682Z,452
2022-08-10T01:29:01.689Z,452
2022-08-10T01:29:16.700Z,453
2022-08-10T01:29:21.718Z,453
2022-08-10T01:29:31.763Z,453
2022-08-10T01:29:41.728Z,452
2022-08-10T01:29:51.775Z,452
2022-08-10T01:30:01.766Z,453
2022-08-10T01:30:11.763Z,453
2022-08-10T01:30:21.793Z,454
2022-08-10T01:30:31.807Z,454
2022-08-10T01:30:41.821Z,456
2022-08-10T01:30:51.866Z,456
2022-08-10T01:31:01.842Z,455
2022-08-10T01:31:11.923Z,456
2022-08-10T01:31:21.864Z,456
2022-08-10T01:31:31.902Z,455
2022-08-10T01:31:41.877Z,456
2022-08-10T01:31:51.887Z,456
2022-08-10T01:32:01.904Z,457
2022-08-10T01:32:11.925Z,458
2022-08-10T01:32:21.944Z,457
2022-08-10T01:32:32.108Z,457
2022-08-10T01:32:41.951Z,458
2022-08-10T01:32:51.999Z,458
2022-08-10T01:33:01.979Z,459
2022-08-10T01:33:12.002Z,459
2022-08-10T01:33:31.815Z,459
2022-08-10T01:33:58.541Z,458
2022-08-10T01:33:58.575Z,457
2022-08-10T01:33:58.671Z,458
2022-08-10T01:34:02.724Z,456
2022-08-10T01:34:12.063Z,456
2022-08-10T01:34:22.063Z,455
2022-08-10T01:34:32.094Z,456
2022-08-10T01:34:42.101Z,455
2022-08-10T01:34:52.106Z,457
2022-08-10T01:35:02.328Z,457
2022-08-10T01:35:12.132Z,457
2022-08-10T01:35:22.137Z,457
2022-08-10T01:35:32.149Z,458
2022-08-10T01:35:42.165Z,459
2022-08-10T01:35:52.194Z,458
2022-08-10T01:36:02.207Z,457
2022-08-10T01:36:12.250Z,458
2022-08-10T01:36:32.482Z,458
2022-08-10T01:36:32.800Z,457
2022-08-10T01:36:42.246Z,456
2022-08-10T01:36:52.322Z,455
2022-08-10T01:37:02.277Z,456
2022-08-10T01:37:12.301Z,456
2022-08-10T01:37:22.285Z,457
2022-08-10T01:37:32.317Z,456
2022-08-10T01:37:42.335Z,455
2022-08-10T01:37:52.653Z,456
2022-08-10T01:38:02.367Z,455
2022-08-10T01:38:12.389Z,458
2022-08-10T01:38:22.369Z,459
2022-08-10T01:38:32.392Z,458
2022-08-10T01:38:42.402Z,457
2022-08-10T01:38:52.418Z,457
2022-08-10T01:39:03.700Z,457
2022-08-10T01:39:12.457Z,458
2022-08-10T01:39:22.517Z,458
2022-08-10T01:39:32.569Z,456
2022-08-10T01:39:42.520Z,457
2022-08-10T01:40:02.488Z,458
2022-08-10T01:40:12.515Z,460
2022-08-10T01:40:22.580Z,460
2022-08-10T01:40:32.514Z,460
2022-08-10T01:40:42.575Z,459
2022-08-10T01:40:52.590Z,459
2022-08-10T01:41:02.895Z,459
2022-08-10T01:41:12.588Z,459
2022-08-10T01:41:22.594Z,459
2022-08-10T01:41:45.624Z,462
2022-08-10T01:41:46.483Z,464
2022-08-10T01:41:52.668Z,464
2022-08-10T01:42:02.637Z,463
2022-08-10T01:42:12.628Z,465
2022-08-10T01:42:22.675Z,462
2022-08-10T01:42:32.959Z,463
2022-08-10T01:42:42.671Z,461
2022-08-10T01:42:52.743Z,463
2022-08-10T01:43:08.642Z,461
2022-08-10T01:43:12.699Z,461
2022-08-10T01:43:22.721Z,460
2022-08-10T01:43:32.752Z,460
2022-08-10T01:43:42.786Z,462
2022-08-10T01:43:52.764Z,463
2022-08-10T01:44:03.631Z,463
2022-08-10T01:44:12.784Z,463
2022-08-10T01:44:22.792Z,461
2022-08-10T01:44:32.799Z,458
2022-08-10T01:44:42.809Z,460
2022-08-10T01:44:52.849Z,460
2022-08-10T01:45:02.862Z,457
2022-08-10T01:45:12.853Z,457
2022-08-10T01:45:22.889Z,457
2022-08-10T01:45:45.149Z,458
2022-08-10T01:45:45.612Z,458
2022-08-10T01:45:52.900Z,457
2022-08-10T01:46:02.954Z,457
2022-08-10T01:46:12.923Z,458
2022-08-10T01:46:22.941Z,457
2022-08-10T01:46:32.973Z,458
2022-08-10T01:46:42.972Z,458
2022-08-10T01:46:56.806Z,459
2022-08-10T01:47:02.998Z,459
2022-08-10T01:47:13.047Z,460
2022-08-10T01:47:23.539Z,460
2022-08-10T01:47:33.042Z,458
2022-08-10T01:47:43.042Z,458
2022-08-10T01:47:53.056Z,458
2022-08-10T01:48:03.056Z,459
2022-08-10T01:48:16.432Z,458
2022-08-10T01:48:23.089Z,457
2022-08-10T01:48:33.137Z,458
2022-08-10T01:48:43.118Z,458
2022-08-10T01:48:53.154Z,459
2022-08-10T01:49:03.142Z,459
2022-08-10T01:49:13.148Z,459
2022-08-10T01:49:23.157Z,460
2022-08-10T01:49:33.199Z,459
2022-08-10T01:49:43.194Z,459
2022-08-10T01:49:53.188Z,460
2022-08-10T01:50:03.223Z,460
2022-08-10T01:50:13.224Z,460
2022-08-10T01:50:23.238Z,457
2022-08-10T01:50:33.266Z,455
2022-08-10T01:50:59.615Z,452
2022-08-10T01:50:59.870Z,455
2022-08-10T01:51:03.274Z,453
2022-08-10T01:51:13.306Z,454
2022-08-10T01:51:23.300Z,453
2022-08-10T01:51:33.310Z,454
2022-08-10T01:51:43.315Z,453
2022-08-10T01:51:53.350Z,453
2022-08-10T01:52:03.340Z,454
2022-08-10T01:52:13.369Z,455
2022-08-10T01:52:33.634Z,457
2022-08-10T01:52:43.518Z,458
2022-08-10T01:52:53.390Z,458
2022-08-10T01:53:03.398Z,458
2022-08-10T01:53:13.613Z,459
2022-08-10T01:53:23.431Z,459
2022-08-10T01:53:39.947Z,461
2022-08-10T01:53:43.460Z,460
2022-08-10T01:53:53.470Z,460
2022-08-10T01:54:03.499Z,460
2022-08-10T01:54:13.512Z,460
2022-08-10T01:54:23.565Z,459
2022-08-10T01:54:33.506Z,459
2022-08-10T01:54:43.537Z,461
2022-08-10T01:54:53.541Z,460
2022-08-10T01:55:03.566Z,460
2022-08-10T01:55:13.554Z,460
2022-08-10T01:55:23.575Z,459
2022-08-10T01:55:33.581Z,458
2022-08-10T01:55:43.608Z,456
2022-08-10T01:55:53.622Z,458
2022-08-10T01:56:03.610Z,459
2022-08-10T01:56:13.636Z,460
2022-08-10T01:56:23.645Z,457
2022-08-10T01:56:33.647Z,456
2022-08-10T01:56:43.655Z,456
2022-08-10T01:56:58.698Z,456
2022-08-10T01:57:03.710Z,457
2022-08-10T01:57:13.686Z,456
2022-08-10T01:57:23.696Z,458
2022-08-10T01:57:33.727Z,457
2022-08-10T01:57:43.761Z,454
2022-08-10T01:57:53.816Z,453
2022-08-10T01:58:03.766Z,454
2022-08-10T01:58:13.767Z,453
2022-08-10T01:58:23.794Z,451
2022-08-10T01:58:33.813Z,450
2022-08-10T01:58:43.818Z,449
2022-08-10T01:58:53.825Z,448
2022-08-10T01:59:03.841Z,449
2022-08-10T01:59:13.848Z,449
2022-08-10T01:59:23.867Z,449
2022-08-10T01:59:33.873Z,445
2022-08-10T01:59:54.626Z,448
2022-08-10T01:59:58.611Z,448
2022-08-10T02:00:03.892Z,449
2022-08-10T02:00:13.913Z,450
2022-08-10T02:00:23.926Z,451
2022-08-10T02:00:33.950Z,451
2022-08-10T02:00:43.943Z,450
2022-08-10T02:00:54.058Z,448
2022-08-10T02:01:04.085Z,449
2022-08-10T02:01:17.018Z,450
2022-08-10T02:01:24.116Z,449
2022-08-10T02:01:34.063Z,451
2022-08-10T02:01:44.069Z,449
2022-08-10T02:01:54.032Z,452
2022-08-10T02:02:04.044Z,453
2022-08-10T02:02:14.058Z,452
2022-08-10T02:02:24.092Z,452
2022-08-10T02:02:34.433Z,452
2022-08-10T02:02:44.104Z,455
2022-08-10T02:02:54.121Z,453
2022-08-10T02:03:04.108Z,453
2022-08-10T02:03:14.135Z,451
2022-08-10T02:03:24.135Z,451
2022-08-10T02:03:34.159Z,449
2022-08-10T02:04:03.591Z,448
2022-08-10T02:04:04.405Z,450
2022-08-10T02:04:05.898Z,448
2022-08-10T02:04:14.213Z,451
2022-08-10T02:04:24.210Z,451
2022-08-10T02:04:44.234Z,449
2022-08-10T02:04:54.249Z,450
2022-08-10T02:05:04.250Z,451
2022-08-10T02:05:14.257Z,452
2022-08-10T02:05:24.361Z,453
2022-08-10T02:05:34.301Z,452
2022-08-10T02:05:44.302Z,452
2022-08-10T02:05:54.331Z,453
2022-08-10T02:06:04.343Z,451
2022-08-10T02:06:14.335Z,452
2022-08-10T02:06:29.403Z,451
2022-08-10T02:06:34.357Z,451
2022-08-10T02:06:44.365Z,451
2022-08-10T02:06:54.378Z,451
2022-08-10T02:07:04.416Z,451
2022-08-10T02:07:14.428Z,450
2022-08-10T02:07:24.429Z,449
2022-08-10T02:07:34.438Z,449
2022-08-10T02:07:44.439Z,448
2022-08-10T02:07:54.490Z,447
2022-08-10T02:08:04.548Z,446
2022-08-10T02:08:14.478Z,444
2022-08-10T02:08:24.482Z,445
2022-08-10T02:08:34.514Z,445
2022-08-10T02:08:44.511Z,446
2022-08-10T02:09:06.245Z,444
2022-08-10T02:09:06.701Z,445
2022-08-10T02:09:14.553Z,443
2022-08-10T02:09:24.570Z,443
2022-08-10T02:09:34.619Z,444
2022-08-10T02:09:44.597Z,445
2022-08-10T02:09:54.600Z,445
2022-08-10T02:10:04.627Z,445
2022-08-10T02:10:24.635Z,444
2022-08-10T02:10:34.671Z,445
2022-08-10T02:10:44.911Z,445
2022-08-10T02:10:54.681Z,446
2022-08-10T02:11:04.713Z,446
2022-08-10T02:11:14.705Z,446
2022-08-10T02:11:24.710Z,445
2022-08-10T02:12:05.338Z,445
2022-08-10T02:12:06.072Z,445
2022-08-10T02:12:06.546Z,446
2022-08-10T02:12:07.472Z,445
2022-08-10T02:12:14.774Z,446
2022-08-10T02:12:24.775Z,448
2022-08-10T02:12:34.969Z,449
2022-08-10T02:12:44.831Z,449
2022-08-10T02:12:54.822Z,451
2022-08-10T02:13:04.816Z,451
2022-08-10T02:13:14.843Z,451
2022-08-10T02:13:24.837Z,450
2022-08-10T02:13:34.854Z,452
2022-08-10T02:13:44.854Z,451
2022-08-10T02:13:54.900Z,452
2022-08-10T02:14:04.897Z,451
2022-08-10T02:14:14.897Z,450
2022-08-10T02:14:24.926Z,452
2022-08-10T02:14:34.997Z,452
2022-08-10T02:14:44.936Z,451
2022-08-10T02:14:54.940Z,452
2022-08-10T02:15:04.952Z,452
2022-08-10T02:15:14.966Z,453
2022-08-10T02:15:24.985Z,453
2022-08-10T02:15:35.004Z,453
2022-08-10T02:16:01.644Z,457
2022-08-10T02:16:02.315Z,455
2022-08-10T02:16:05.018Z,458
2022-08-10T02:16:15.039Z,457
2022-08-10T02:16:25.048Z,457
2022-08-10T02:16:35.087Z,456
2022-08-10T02:16:45.073Z,455
2022-08-10T02:16:55.104Z,456
2022-08-10T02:17:05.087Z,456
2022-08-10T02:17:57.294Z,456
2022-08-10T02:17:58.582Z,457
2022-08-10T02:17:59.718Z,457
2022-08-10T02:18:00.113Z,457
2022-08-10T02:18:00.668Z,455
2022-08-10T02:18:06.248Z,454
2022-08-10T02:18:15.187Z,451
2022-08-10T02:18:25.198Z,451
2022-08-10T02:18:35.199Z,450
2022-08-10T02:18:45.289Z,449
2022-08-10T02:18:55.222Z,448
2022-08-10T02:19:05.254Z,450
2022-08-10T02:19:15.244Z,449